sensor_id;sensor_type;location;lat;lon;timestamp;P1;durP1;ratioP1;P2;durP2;ratioP2
63346;SDS011;49472;49.880;8.650;2023-04-12T00:02:20;15.50;;;11.73;;
63346;SDS011;49472;49.880;8.650;2023-04-12T00:04:45;12.50;;;11.20;;
63346;SDS011;49472;49.880;8.650;2023-04-12T00:07:22;12.23;;;11.10;;
63346;SDS011;49472;49.880;8.650;2023-04-12T00:09:51;12.40;;;11.10;;
63346;SDS011;49472;49.880;8.650;2023-04-12T00:12:17;11.90;;;10.67;;
63346;SDS011;49472;49.880;8.650;2023-04-12T00:14:43;12.40;;;11.13;;
63346;SDS011;49472;49.880;8.650;2023-04-12T00:17:11;12.00;;;11.10;;
63346;SDS011;49472;49.880;8.650;2023-04-12T00:19:37;11.80;;;11.00;;
63346;SDS011;49472;49.880;8.650;2023-04-12T00:22:08;11.47;;;10.80;;
63346;SDS011;49472;49.880;8.650;2023-04-12T00:24:35;12.60;;;11.60;;
63346;SDS011;49472;49.880;8.650;2023-04-12T00:27:02;11.90;;;10.70;;
63346;SDS011;49472;49.880;8.650;2023-04-12T00:29:29;12.20;;;11.00;;
63346;SDS011;49472;49.880;8.650;2023-04-12T00:31:55;12.07;;;11.00;;
63346;SDS011;49472;49.880;8.650;2023-04-12T00:34:21;13.00;;;11.70;;
63346;SDS011;49472;49.880;8.650;2023-04-12T00:36:46;12.83;;;11.70;;
63346;SDS011;49472;49.880;8.650;2023-04-12T00:39:12;18.10;;;12.07;;
63346;SDS011;49472;49.880;8.650;2023-04-12T00:41:37;13.17;;;11.80;;
63346;SDS011;49472;49.880;8.650;2023-04-12T00:44:02;15.30;;;11.70;;
63346;SDS011;49472;49.880;8.650;2023-04-12T00:46:28;15.20;;;12.40;;
63346;SDS011;49472;49.880;8.650;2023-04-12T00:48:55;12.83;;;11.73;;
63346;SDS011;49472;49.880;8.650;2023-04-12T00:51:21;12.80;;;11.60;;
63346;SDS011;49472;49.880;8.650;2023-04-12T00:53:49;13.37;;;12.20;;
63346;SDS011;49472;49.880;8.650;2023-04-12T00:56:21;13.87;;;12.47;;
63346;SDS011;49472;49.880;8.650;2023-04-12T00:58:47;12.73;;;11.70;;
63346;SDS011;49472;49.880;8.650;2023-04-12T01:01:13;14.60;;;12.17;;
63346;SDS011;49472;49.880;8.650;2023-04-12T01:03:41;13.30;;;12.07;;
63346;SDS011;49472;49.880;8.650;2023-04-12T01:14:42;13.30;;;12.07;;
63346;SDS011;49472;49.880;8.650;2023-04-12T01:17:16;14.67;;;13.30;;
63346;SDS011;49472;49.880;8.650;2023-04-12T01:27:33;18.67;;;13.93;;
63346;SDS011;49472;49.880;8.650;2023-04-12T01:30:00;15.33;;;13.43;;
63346;SDS011;49472;49.880;8.650;2023-04-12T01:32:29;14.77;;;13.27;;
63346;SDS011;49472;49.880;8.650;2023-04-12T01:34:56;14.40;;;13.13;;
63346;SDS011;49472;49.880;8.650;2023-04-12T01:37:23;14.73;;;13.43;;
63346;SDS011;49472;49.880;8.650;2023-04-12T01:39:49;15.37;;;14.13;;
63346;SDS011;49472;49.880;8.650;2023-04-12T01:42:18;15.03;;;13.67;;
63346;SDS011;49472;49.880;8.650;2023-04-12T01:44:44;24.13;;;15.53;;
63346;SDS011;49472;49.880;8.650;2023-04-12T01:47:10;16.77;;;14.30;;
63346;SDS011;49472;49.880;8.650;2023-04-12T01:49:42;24.20;;;13.60;;
63346;SDS011;49472;49.880;8.650;2023-04-12T01:52:18;17.87;;;14.27;;
63346;SDS011;49472;49.880;8.650;2023-04-12T01:54:48;14.50;;;13.40;;
63346;SDS011;49472;49.880;8.650;2023-04-12T01:57:18;14.77;;;13.47;;
63346;SDS011;49472;49.880;8.650;2023-04-12T01:59:45;13.57;;;12.47;;
63346;SDS011;49472;49.880;8.650;2023-04-12T02:02:12;17.27;;;12.93;;
63346;SDS011;49472;49.880;8.650;2023-04-12T02:04:38;17.47;;;12.67;;
63346;SDS011;49472;49.880;8.650;2023-04-12T02:07:06;13.67;;;12.57;;
63346;SDS011;49472;49.880;8.650;2023-04-12T02:09:40;14.30;;;12.67;;
63346;SDS011;49472;49.880;8.650;2023-04-12T02:12:05;20.23;;;12.53;;
63346;SDS011;49472;49.880;8.650;2023-04-12T02:14:31;14.00;;;12.57;;
63346;SDS011;49472;49.880;8.650;2023-04-12T02:16:56;19.27;;;12.33;;
63346;SDS011;49472;49.880;8.650;2023-04-12T02:19:22;13.60;;;12.40;;
63346;SDS011;49472;49.880;8.650;2023-04-12T02:21:48;14.50;;;12.50;;
63346;SDS011;49472;49.880;8.650;2023-04-12T02:24:14;14.60;;;11.33;;
63346;SDS011;49472;49.880;8.650;2023-04-12T02:26:39;13.57;;;12.43;;
63346;SDS011;49472;49.880;8.650;2023-04-12T02:29:05;16.87;;;12.70;;
63346;SDS011;49472;49.880;8.650;2023-04-12T02:31:32;15.07;;;13.23;;
63346;SDS011;49472;49.880;8.650;2023-04-12T02:33:59;21.23;;;13.40;;
63346;SDS011;49472;49.880;8.650;2023-04-12T02:36:25;14.27;;;12.90;;
63346;SDS011;49472;49.880;8.650;2023-04-12T02:38:50;15.90;;;13.60;;
63346;SDS011;49472;49.880;8.650;2023-04-12T02:41:16;21.13;;;13.17;;
63346;SDS011;49472;49.880;8.650;2023-04-12T02:43:45;13.90;;;12.50;;
63346;SDS011;49472;49.880;8.650;2023-04-12T02:46:13;14.30;;;12.87;;
63346;SDS011;49472;49.880;8.650;2023-04-12T02:48:39;12.83;;;11.73;;
63346;SDS011;49472;49.880;8.650;2023-04-12T02:51:05;13.07;;;11.97;;
63346;SDS011;49472;49.880;8.650;2023-04-12T02:53:30;18.50;;;11.90;;
63346;SDS011;49472;49.880;8.650;2023-04-12T02:55:56;16.07;;;11.50;;
63346;SDS011;49472;49.880;8.650;2023-04-12T02:58:21;12.67;;;11.63;;
63346;SDS011;49472;49.880;8.650;2023-04-12T03:00:46;16.17;;;11.63;;
63346;SDS011;49472;49.880;8.650;2023-04-12T03:03:13;12.43;;;11.37;;
63346;SDS011;49472;49.880;8.650;2023-04-12T03:05:41;14.70;;;11.70;;
63346;SDS011;49472;49.880;8.650;2023-04-12T03:08:11;12.93;;;11.67;;
63346;SDS011;49472;49.880;8.650;2023-04-12T03:10:36;13.10;;;11.83;;
63346;SDS011;49472;49.880;8.650;2023-04-12T03:13:02;12.40;;;11.30;;
63346;SDS011;49472;49.880;8.650;2023-04-12T03:15:28;12.70;;;11.60;;
63346;SDS011;49472;49.880;8.650;2023-04-12T03:17:54;12.23;;;11.37;;
63346;SDS011;49472;49.880;8.650;2023-04-12T03:20:19;12.87;;;11.57;;
63346;SDS011;49472;49.880;8.650;2023-04-12T03:22:45;11.97;;;11.07;;
63346;SDS011;49472;49.880;8.650;2023-04-12T03:25:10;12.90;;;11.70;;
63346;SDS011;49472;49.880;8.650;2023-04-12T03:27:36;12.57;;;11.53;;
63346;SDS011;49472;49.880;8.650;2023-04-12T03:30:02;12.80;;;11.47;;
63346;SDS011;49472;49.880;8.650;2023-04-12T03:32:28;12.57;;;11.37;;
63346;SDS011;49472;49.880;8.650;2023-04-12T03:34:53;12.00;;;10.93;;
63346;SDS011;49472;49.880;8.650;2023-04-12T03:37:19;12.27;;;11.27;;
63346;SDS011;49472;49.880;8.650;2023-04-12T03:39:44;12.10;;;10.90;;
63346;SDS011;49472;49.880;8.650;2023-04-12T03:42:11;12.67;;;11.43;;
63346;SDS011;49472;49.880;8.650;2023-04-12T03:44:37;12.30;;;11.40;;
63346;SDS011;49472;49.880;8.650;2023-04-12T03:47:03;13.00;;;11.40;;
63346;SDS011;49472;49.880;8.650;2023-04-12T03:49:28;12.50;;;11.37;;
63346;SDS011;49472;49.880;8.650;2023-04-12T03:51:53;12.23;;;11.33;;
63346;SDS011;49472;49.880;8.650;2023-04-12T03:54:19;13.40;;;11.83;;
63346;SDS011;49472;49.880;8.650;2023-04-12T03:56:44;12.63;;;11.67;;
63346;SDS011;49472;49.880;8.650;2023-04-12T03:59:09;11.90;;;11.00;;
63346;SDS011;49472;49.880;8.650;2023-04-12T04:01:35;11.80;;;10.90;;
63346;SDS011;49472;49.880;8.650;2023-04-12T04:04:01;12.63;;;11.53;;
63346;SDS011;49472;49.880;8.650;2023-04-12T04:06:27;12.40;;;11.20;;
63346;SDS011;49472;49.880;8.650;2023-04-12T04:08:53;12.33;;;11.03;;
63346;SDS011;49472;49.880;8.650;2023-04-12T04:11:20;11.87;;;10.53;;
63346;SDS011;49472;49.880;8.650;2023-04-12T04:13:45;11.40;;;10.30;;
63346;SDS011;49472;49.880;8.650;2023-04-12T04:16:10;10.90;;;10.00;;
63346;SDS011;49472;49.880;8.650;2023-04-12T04:18:36;11.57;;;10.57;;
63346;SDS011;49472;49.880;8.650;2023-04-12T04:21:01;11.10;;;10.20;;
63346;SDS011;49472;49.880;8.650;2023-04-12T04:23:27;10.90;;;9.83;;
63346;SDS011;49472;49.880;8.650;2023-04-12T04:26:00;11.50;;;10.50;;
63346;SDS011;49472;49.880;8.650;2023-04-12T04:28:29;11.33;;;10.20;;
63346;SDS011;49472;49.880;8.650;2023-04-12T04:30:54;10.90;;;10.20;;
63346;SDS011;49472;49.880;8.650;2023-04-12T04:33:20;10.20;;;9.60;;
63346;SDS011;49472;49.880;8.650;2023-04-12T04:35:45;10.77;;;10.13;;
63346;SDS011;49472;49.880;8.650;2023-04-12T04:38:10;10.87;;;9.97;;
63346;SDS011;49472;49.880;8.650;2023-04-12T04:40:36;14.30;;;10.00;;
63346;SDS011;49472;49.880;8.650;2023-04-12T04:43:02;10.80;;;10.03;;
63346;SDS011;49472;49.880;8.650;2023-04-12T04:45:27;10.00;;;9.50;;
63346;SDS011;49472;49.880;8.650;2023-04-12T04:47:54;9.70;;;9.00;;
63346;SDS011;49472;49.880;8.650;2023-04-12T04:50:20;10.70;;;9.73;;
63346;SDS011;49472;49.880;8.650;2023-04-12T04:52:47;11.10;;;10.07;;
63346;SDS011;49472;49.880;8.650;2023-04-12T04:55:13;11.10;;;10.10;;
63346;SDS011;49472;49.880;8.650;2023-04-12T04:57:39;11.07;;;10.33;;
63346;SDS011;49472;49.880;8.650;2023-04-12T05:00:05;10.47;;;9.77;;
63346;SDS011;49472;49.880;8.650;2023-04-12T05:02:35;10.97;;;9.97;;
63346;SDS011;49472;49.880;8.650;2023-04-12T05:05:01;10.10;;;9.50;;
63346;SDS011;49472;49.880;8.650;2023-04-12T05:07:28;10.10;;;9.37;;
63346;SDS011;49472;49.880;8.650;2023-04-12T05:09:53;11.23;;;10.20;;
63346;SDS011;49472;49.880;8.650;2023-04-12T05:12:18;10.60;;;9.90;;
63346;SDS011;49472;49.880;8.650;2023-04-12T05:14:44;10.20;;;9.70;;
63346;SDS011;49472;49.880;8.650;2023-04-12T05:17:09;10.33;;;9.83;;
63346;SDS011;49472;49.880;8.650;2023-04-12T05:19:34;10.67;;;10.07;;
63346;SDS011;49472;49.880;8.650;2023-04-12T05:22:00;10.90;;;10.13;;
63346;SDS011;49472;49.880;8.650;2023-04-12T05:24:25;10.00;;;9.30;;
63346;SDS011;49472;49.880;8.650;2023-04-12T05:26:50;10.50;;;9.67;;
63346;SDS011;49472;49.880;8.650;2023-04-12T05:29:15;10.10;;;9.57;;
63346;SDS011;49472;49.880;8.650;2023-04-12T05:31:41;10.83;;;10.00;;
63346;SDS011;49472;49.880;8.650;2023-04-12T05:34:06;10.77;;;10.10;;
63346;SDS011;49472;49.880;8.650;2023-04-12T05:36:31;10.73;;;10.03;;
63346;SDS011;49472;49.880;8.650;2023-04-12T05:38:57;10.83;;;10.03;;
63346;SDS011;49472;49.880;8.650;2023-04-12T05:41:22;10.30;;;9.80;;
63346;SDS011;49472;49.880;8.650;2023-04-12T05:43:48;11.07;;;10.37;;
63346;SDS011;49472;49.880;8.650;2023-04-12T05:46:13;10.93;;;10.07;;
63346;SDS011;49472;49.880;8.650;2023-04-12T05:48:38;10.90;;;10.10;;
63346;SDS011;49472;49.880;8.650;2023-04-12T05:51:03;10.70;;;9.97;;
63346;SDS011;49472;49.880;8.650;2023-04-12T05:53:29;10.20;;;9.47;;
63346;SDS011;49472;49.880;8.650;2023-04-12T05:55:57;10.30;;;9.00;;
63346;SDS011;49472;49.880;8.650;2023-04-12T05:58:22;10.37;;;9.67;;
63346;SDS011;49472;49.880;8.650;2023-04-12T06:00:48;10.53;;;9.87;;
63346;SDS011;49472;49.880;8.650;2023-04-12T06:03:13;10.70;;;9.80;;
63346;SDS011;49472;49.880;8.650;2023-04-12T06:05:39;10.90;;;10.10;;
63346;SDS011;49472;49.880;8.650;2023-04-12T06:08:04;7.90;;;7.50;;
63346;SDS011;49472;49.880;8.650;2023-04-12T06:10:30;8.07;;;7.50;;
63346;SDS011;49472;49.880;8.650;2023-04-12T06:12:55;8.47;;;7.37;;
63346;SDS011;49472;49.880;8.650;2023-04-12T06:15:21;6.93;;;6.60;;
63346;SDS011;49472;49.880;8.650;2023-04-12T06:17:46;7.40;;;7.00;;
63346;SDS011;49472;49.880;8.650;2023-04-12T06:20:11;7.37;;;6.67;;
63346;SDS011;49472;49.880;8.650;2023-04-12T06:22:37;9.23;;;8.63;;
63346;SDS011;49472;49.880;8.650;2023-04-12T06:25:02;11.03;;;9.90;;
63346;SDS011;49472;49.880;8.650;2023-04-12T06:27:28;11.10;;;10.40;;
63346;SDS011;49472;49.880;8.650;2023-04-12T06:29:54;10.93;;;10.13;;
63346;SDS011;49472;49.880;8.650;2023-04-12T06:32:19;10.50;;;9.90;;
63346;SDS011;49472;49.880;8.650;2023-04-12T06:34:45;11.13;;;10.63;;
63346;SDS011;49472;49.880;8.650;2023-04-12T06:37:10;10.87;;;10.10;;
63346;SDS011;49472;49.880;8.650;2023-04-12T06:39:35;10.60;;;10.10;;
63346;SDS011;49472;49.880;8.650;2023-04-12T06:42:01;10.97;;;10.17;;
63346;SDS011;49472;49.880;8.650;2023-04-12T06:44:26;11.07;;;10.47;;
63346;SDS011;49472;49.880;8.650;2023-04-12T06:46:52;11.67;;;10.97;;
63346;SDS011;49472;49.880;8.650;2023-04-12T06:49:17;10.70;;;10.00;;
63346;SDS011;49472;49.880;8.650;2023-04-12T06:51:43;10.60;;;10.00;;
63346;SDS011;49472;49.880;8.650;2023-04-12T06:54:08;11.27;;;10.13;;
63346;SDS011;49472;49.880;8.650;2023-04-12T06:56:35;10.60;;;10.00;;
63346;SDS011;49472;49.880;8.650;2023-04-12T06:59:01;10.17;;;9.67;;
63346;SDS011;49472;49.880;8.650;2023-04-12T07:01:27;10.37;;;9.67;;
63346;SDS011;49472;49.880;8.650;2023-04-12T07:03:52;10.20;;;9.70;;
63346;SDS011;49472;49.880;8.650;2023-04-12T07:06:18;11.20;;;10.50;;
63346;SDS011;49472;49.880;8.650;2023-04-12T07:08:43;11.40;;;10.60;;
63346;SDS011;49472;49.880;8.650;2023-04-12T07:11:08;11.10;;;10.40;;
63346;SDS011;49472;49.880;8.650;2023-04-12T07:13:34;10.50;;;9.80;;
63346;SDS011;49472;49.880;8.650;2023-04-12T07:16:00;10.27;;;9.47;;
63346;SDS011;49472;49.880;8.650;2023-04-12T07:18:25;10.60;;;10.00;;
63346;SDS011;49472;49.880;8.650;2023-04-12T07:20:52;11.07;;;10.37;;
63346;SDS011;49472;49.880;8.650;2023-04-12T07:23:19;11.40;;;10.70;;
63346;SDS011;49472;49.880;8.650;2023-04-12T07:25:44;10.60;;;9.90;;
63346;SDS011;49472;49.880;8.650;2023-04-12T07:28:10;11.37;;;10.57;;
63346;SDS011;49472;49.880;8.650;2023-04-12T07:30:37;11.93;;;10.77;;
63346;SDS011;49472;49.880;8.650;2023-04-12T07:33:02;9.87;;;9.30;;
63346;SDS011;49472;49.880;8.650;2023-04-12T07:35:29;9.23;;;8.63;;
63346;SDS011;49472;49.880;8.650;2023-04-12T07:37:58;10.73;;;10.13;;
63346;SDS011;49472;49.880;8.650;2023-04-12T07:40:25;10.90;;;10.00;;
63346;SDS011;49472;49.880;8.650;2023-04-12T07:42:50;11.10;;;10.20;;
63346;SDS011;49472;49.880;8.650;2023-04-12T07:45:16;10.17;;;9.47;;
63346;SDS011;49472;49.880;8.650;2023-04-12T07:47:41;10.43;;;9.73;;
63346;SDS011;49472;49.880;8.650;2023-04-12T07:50:06;10.33;;;9.73;;
63346;SDS011;49472;49.880;8.650;2023-04-12T07:52:32;10.40;;;9.87;;
63346;SDS011;49472;49.880;8.650;2023-04-12T07:54:57;12.00;;;11.20;;
63346;SDS011;49472;49.880;8.650;2023-04-12T07:57:23;17.13;;;14.47;;
63346;SDS011;49472;49.880;8.650;2023-04-12T07:59:48;15.57;;;14.03;;
63346;SDS011;49472;49.880;8.650;2023-04-12T08:02:14;14.50;;;13.30;;
63346;SDS011;49472;49.880;8.650;2023-04-12T08:04:48;11.80;;;10.80;;
63346;SDS011;49472;49.880;8.650;2023-04-12T08:07:13;9.97;;;9.27;;
63346;SDS011;49472;49.880;8.650;2023-04-12T08:09:39;11.30;;;10.33;;
63346;SDS011;49472;49.880;8.650;2023-04-12T08:12:05;10.40;;;9.40;;
63346;SDS011;49472;49.880;8.650;2023-04-12T08:14:31;10.37;;;9.57;;
63346;SDS011;49472;49.880;8.650;2023-04-12T08:16:56;10.30;;;9.60;;
63346;SDS011;49472;49.880;8.650;2023-04-12T08:19:21;10.90;;;10.00;;
63346;SDS011;49472;49.880;8.650;2023-04-12T08:21:47;11.10;;;10.17;;
63346;SDS011;49472;49.880;8.650;2023-04-12T08:24:12;11.07;;;10.00;;
63346;SDS011;49472;49.880;8.650;2023-04-12T08:26:37;10.70;;;9.80;;
63346;SDS011;49472;49.880;8.650;2023-04-12T08:29:02;11.60;;;10.60;;
63346;SDS011;49472;49.880;8.650;2023-04-12T08:31:28;10.40;;;9.70;;
63346;SDS011;49472;49.880;8.650;2023-04-12T08:33:53;10.60;;;9.77;;
63346;SDS011;49472;49.880;8.650;2023-04-12T08:36:18;9.23;;;8.73;;
63346;SDS011;49472;49.880;8.650;2023-04-12T08:38:44;9.20;;;8.43;;
63346;SDS011;49472;49.880;8.650;2023-04-12T08:41:09;8.17;;;7.57;;
63346;SDS011;49472;49.880;8.650;2023-04-12T08:43:34;8.33;;;7.67;;
63346;SDS011;49472;49.880;8.650;2023-04-12T08:46:01;6.43;;;5.93;;
63346;SDS011;49472;49.880;8.650;2023-04-12T08:48:27;8.80;;;5.77;;
63346;SDS011;49472;49.880;8.650;2023-04-12T08:50:53;6.03;;;5.57;;
63346;SDS011;49472;49.880;8.650;2023-04-12T08:53:20;9.67;;;5.93;;
63346;SDS011;49472;49.880;8.650;2023-04-12T08:55:46;6.63;;;6.03;;
63346;SDS011;49472;49.880;8.650;2023-04-12T08:58:14;9.20;;;8.70;;
63346;SDS011;49472;49.880;8.650;2023-04-12T09:00:40;9.67;;;8.63;;
63346;SDS011;49472;49.880;8.650;2023-04-12T09:03:06;9.47;;;8.77;;
63346;SDS011;49472;49.880;8.650;2023-04-12T09:05:31;7.83;;;7.03;;
63346;SDS011;49472;49.880;8.650;2023-04-12T09:07:57;8.53;;;7.70;;
63346;SDS011;49472;49.880;8.650;2023-04-12T09:10:30;9.97;;;8.97;;
63346;SDS011;49472;49.880;8.650;2023-04-12T09:12:57;9.90;;;9.10;;
63346;SDS011;49472;49.880;8.650;2023-04-12T09:15:23;10.73;;;9.77;;
63346;SDS011;49472;49.880;8.650;2023-04-12T09:17:48;11.50;;;8.23;;
63346;SDS011;49472;49.880;8.650;2023-04-12T09:20:28;7.30;;;6.40;;
63346;SDS011;49472;49.880;8.650;2023-04-12T09:22:53;8.93;;;6.83;;
63346;SDS011;49472;49.880;8.650;2023-04-12T09:25:35;7.57;;;6.93;;
63346;SDS011;49472;49.880;8.650;2023-04-12T09:28:02;9.13;;;8.10;;
63346;SDS011;49472;49.880;8.650;2023-04-12T09:30:28;10.27;;;8.13;;
63346;SDS011;49472;49.880;8.650;2023-04-12T09:32:54;9.37;;;8.47;;
63346;SDS011;49472;49.880;8.650;2023-04-12T09:35:31;9.57;;;8.57;;
63346;SDS011;49472;49.880;8.650;2023-04-12T09:37:57;9.20;;;8.50;;
63346;SDS011;49472;49.880;8.650;2023-04-12T09:40:31;10.13;;;9.33;;
63346;SDS011;49472;49.880;8.650;2023-04-12T09:43:00;9.90;;;8.87;;
63346;SDS011;49472;49.880;8.650;2023-04-12T09:45:25;9.63;;;8.87;;
63346;SDS011;49472;49.880;8.650;2023-04-12T09:47:52;9.67;;;8.70;;
63346;SDS011;49472;49.880;8.650;2023-04-12T09:50:22;9.63;;;8.93;;
63346;SDS011;49472;49.880;8.650;2023-04-12T09:52:49;9.50;;;8.80;;
63346;SDS011;49472;49.880;8.650;2023-04-12T09:55:15;11.00;;;9.10;;
63346;SDS011;49472;49.880;8.650;2023-04-12T09:57:42;10.10;;;9.17;;
63346;SDS011;49472;49.880;8.650;2023-04-12T10:00:09;9.57;;;8.67;;
63346;SDS011;49472;49.880;8.650;2023-04-12T10:02:38;12.50;;;9.27;;
63346;SDS011;49472;49.880;8.650;2023-04-12T10:05:05;10.33;;;9.33;;
63346;SDS011;49472;49.880;8.650;2023-04-12T10:07:33;9.80;;;8.87;;
63346;SDS011;49472;49.880;8.650;2023-04-12T10:10:00;10.40;;;9.60;;
63346;SDS011;49472;49.880;8.650;2023-04-12T10:12:27;11.20;;;10.03;;
63346;SDS011;49472;49.880;8.650;2023-04-12T10:14:53;10.40;;;9.37;;
63346;SDS011;49472;49.880;8.650;2023-04-12T10:17:19;9.50;;;8.70;;
63346;SDS011;49472;49.880;8.650;2023-04-12T10:19:46;11.83;;;8.47;;
63346;SDS011;49472;49.880;8.650;2023-04-12T10:22:12;10.53;;;8.00;;
63346;SDS011;49472;49.880;8.650;2023-04-12T10:24:39;9.27;;;8.30;;
63346;SDS011;49472;49.880;8.650;2023-04-12T10:27:04;9.07;;;8.37;;
63346;SDS011;49472;49.880;8.650;2023-04-12T10:29:31;11.33;;;9.37;;
63346;SDS011;49472;49.880;8.650;2023-04-12T10:34:51;12.70;;;8.47;;
63346;SDS011;49472;49.880;8.650;2023-04-12T10:37:21;10.17;;;9.10;;
63346;SDS011;49472;49.880;8.650;2023-04-12T10:40:25;10.10;;;9.20;;
63346;SDS011;49472;49.880;8.650;2023-04-12T10:45:51;11.43;;;9.50;;
63346;SDS011;49472;49.880;8.650;2023-04-12T10:48:36;9.83;;;8.83;;
63346;SDS011;49472;49.880;8.650;2023-04-12T10:51:19;10.60;;;9.10;;
63346;SDS011;49472;49.880;8.650;2023-04-12T10:53:49;9.73;;;8.80;;
63346;SDS011;49472;49.880;8.650;2023-04-12T10:58:56;10.93;;;9.80;;
63346;SDS011;49472;49.880;8.650;2023-04-12T11:01:22;17.23;;;9.90;;
63346;SDS011;49472;49.880;8.650;2023-04-12T11:11:58;10.53;;;9.63;;
63346;SDS011;49472;49.880;8.650;2023-04-12T11:14:45;11.10;;;9.90;;
63346;SDS011;49472;49.880;8.650;2023-04-12T11:19:38;12.40;;;10.33;;
63346;SDS011;49472;49.880;8.650;2023-04-12T11:22:06;11.57;;;10.60;;
63346;SDS011;49472;49.880;8.650;2023-04-12T11:24:34;12.20;;;10.20;;
63346;SDS011;49472;49.880;8.650;2023-04-12T11:27:02;11.03;;;10.03;;
63346;SDS011;49472;49.880;8.650;2023-04-12T11:29:28;11.40;;;10.23;;
63346;SDS011;49472;49.880;8.650;2023-04-12T11:31:56;12.13;;;10.90;;
63346;SDS011;49472;49.880;8.650;2023-04-12T11:34:22;11.07;;;10.07;;
63346;SDS011;49472;49.880;8.650;2023-04-12T11:36:51;16.60;;;10.90;;
63346;SDS011;49472;49.880;8.650;2023-04-12T11:39:17;12.00;;;10.40;;
63346;SDS011;49472;49.880;8.650;2023-04-12T11:41:44;11.93;;;10.47;;
63346;SDS011;49472;49.880;8.650;2023-04-12T11:44:10;13.27;;;10.03;;
63346;SDS011;49472;49.880;8.650;2023-04-12T11:46:37;12.27;;;11.07;;
63346;SDS011;49472;49.880;8.650;2023-04-12T11:49:02;15.70;;;10.57;;
63346;SDS011;49472;49.880;8.650;2023-04-12T11:51:30;10.87;;;9.77;;
63346;SDS011;49472;49.880;8.650;2023-04-12T11:53:57;12.07;;;10.50;;
63346;SDS011;49472;49.880;8.650;2023-04-12T11:56:23;10.90;;;10.00;;
63346;SDS011;49472;49.880;8.650;2023-04-12T11:58:52;14.13;;;10.53;;
63346;SDS011;49472;49.880;8.650;2023-04-12T12:01:18;11.53;;;10.57;;
63346;SDS011;49472;49.880;8.650;2023-04-12T12:03:45;12.70;;;10.40;;
63346;SDS011;49472;49.880;8.650;2023-04-12T12:06:11;11.80;;;10.60;;
63346;SDS011;49472;49.880;8.650;2023-04-12T12:08:37;12.37;;;9.77;;
63346;SDS011;49472;49.880;8.650;2023-04-12T12:11:03;10.77;;;10.07;;
63346;SDS011;49472;49.880;8.650;2023-04-12T12:16:26;11.20;;;10.20;;
63346;SDS011;49472;49.880;8.650;2023-04-12T12:18:53;10.63;;;9.70;;
63346;SDS011;49472;49.880;8.650;2023-04-12T12:21:19;10.67;;;9.77;;
63346;SDS011;49472;49.880;8.650;2023-04-12T12:23:45;11.47;;;10.20;;
63346;SDS011;49472;49.880;8.650;2023-04-12T12:26:19;11.30;;;10.33;;
63346;SDS011;49472;49.880;8.650;2023-04-12T12:28:48;10.23;;;8.40;;
63346;SDS011;49472;49.880;8.650;2023-04-12T12:31:21;8.20;;;7.50;;
63346;SDS011;49472;49.880;8.650;2023-04-12T12:33:56;8.90;;;8.10;;
63346;SDS011;49472;49.880;8.650;2023-04-12T12:36:29;11.80;;;8.60;;
63346;SDS011;49472;49.880;8.650;2023-04-12T12:39:03;14.20;;;9.10;;
63346;SDS011;49472;49.880;8.650;2023-04-12T12:41:31;9.47;;;7.40;;
63346;SDS011;49472;49.880;8.650;2023-04-12T12:43:56;15.63;;;7.07;;
63346;SDS011;49472;49.880;8.650;2023-04-12T12:46:21;8.80;;;6.60;;
63346;SDS011;49472;49.880;8.650;2023-04-12T12:48:47;12.00;;;6.77;;
63346;SDS011;49472;49.880;8.650;2023-04-12T12:51:13;12.83;;;7.50;;
63346;SDS011;49472;49.880;8.650;2023-04-12T12:53:41;13.57;;;7.70;;
63346;SDS011;49472;49.880;8.650;2023-04-12T12:56:07;14.13;;;9.40;;
63346;SDS011;49472;49.880;8.650;2023-04-12T12:58:35;18.10;;;8.87;;
63346;SDS011;49472;49.880;8.650;2023-04-12T13:01:01;8.60;;;7.70;;
63346;SDS011;49472;49.880;8.650;2023-04-12T13:03:26;9.77;;;7.73;;
63346;SDS011;49472;49.880;8.650;2023-04-12T13:05:52;10.13;;;7.83;;
63346;SDS011;49472;49.880;8.650;2023-04-12T13:08:17;22.30;;;7.90;;
63346;SDS011;49472;49.880;8.650;2023-04-12T13:10:42;8.73;;;7.60;;
63346;SDS011;49472;49.880;8.650;2023-04-12T13:13:08;10.57;;;7.63;;
63346;SDS011;49472;49.880;8.650;2023-04-12T13:15:34;9.07;;;6.17;;
63346;SDS011;49472;49.880;8.650;2023-04-12T13:17:59;11.33;;;7.10;;
63346;SDS011;49472;49.880;8.650;2023-04-12T13:20:25;6.60;;;5.90;;
63346;SDS011;49472;49.880;8.650;2023-04-12T13:22:51;7.00;;;5.60;;
63346;SDS011;49472;49.880;8.650;2023-04-12T13:25:17;14.73;;;6.47;;
63346;SDS011;49472;49.880;8.650;2023-04-12T13:27:49;10.10;;;6.07;;
63346;SDS011;49472;49.880;8.650;2023-04-12T13:30:16;12.27;;;6.00;;
63346;SDS011;49472;49.880;8.650;2023-04-12T13:32:45;7.87;;;6.40;;
63346;SDS011;49472;49.880;8.650;2023-04-12T13:35:10;9.70;;;6.40;;
63346;SDS011;49472;49.880;8.650;2023-04-12T13:37:36;8.50;;;4.37;;
63346;SDS011;49472;49.880;8.650;2023-04-12T13:40:02;8.30;;;5.30;;
63346;SDS011;49472;49.880;8.650;2023-04-12T13:42:28;5.67;;;4.70;;
63346;SDS011;49472;49.880;8.650;2023-04-12T13:44:53;9.00;;;5.30;;
63346;SDS011;49472;49.880;8.650;2023-04-12T13:47:19;13.67;;;6.30;;
63346;SDS011;49472;49.880;8.650;2023-04-12T13:49:44;6.20;;;4.80;;
63346;SDS011;49472;49.880;8.650;2023-04-12T13:52:10;5.23;;;3.77;;
63346;SDS011;49472;49.880;8.650;2023-04-12T13:54:36;4.33;;;3.27;;
63346;SDS011;49472;49.880;8.650;2023-04-12T13:57:01;5.33;;;2.37;;
63346;SDS011;49472;49.880;8.650;2023-04-12T13:59:27;3.33;;;3.13;;
63346;SDS011;49472;49.880;8.650;2023-04-12T14:01:53;4.10;;;3.50;;
63346;SDS011;49472;49.880;8.650;2023-04-12T14:04:18;2.80;;;2.40;;
63346;SDS011;49472;49.880;8.650;2023-04-12T14:06:44;3.27;;;2.97;;
63346;SDS011;49472;49.880;8.650;2023-04-12T14:09:21;6.90;;;4.60;;
63346;SDS011;49472;49.880;8.650;2023-04-12T14:11:50;11.47;;;4.53;;
63346;SDS011;49472;49.880;8.650;2023-04-12T14:14:16;10.90;;;5.13;;
63346;SDS011;49472;49.880;8.650;2023-04-12T14:16:41;6.70;;;5.03;;
63346;SDS011;49472;49.880;8.650;2023-04-12T14:19:06;16.23;;;5.67;;
63346;SDS011;49472;49.880;8.650;2023-04-12T14:21:32;8.10;;;4.97;;
63346;SDS011;49472;49.880;8.650;2023-04-12T14:23:58;7.80;;;5.23;;
63346;SDS011;49472;49.880;8.650;2023-04-12T14:26:23;11.17;;;5.50;;
63346;SDS011;49472;49.880;8.650;2023-04-12T14:28:50;7.07;;;5.00;;
63346;SDS011;49472;49.880;8.650;2023-04-12T14:31:15;8.57;;;6.03;;
63346;SDS011;49472;49.880;8.650;2023-04-12T14:33:41;8.20;;;6.33;;
63346;SDS011;49472;49.880;8.650;2023-04-12T14:36:06;7.60;;;5.00;;
63346;SDS011;49472;49.880;8.650;2023-04-12T14:38:32;8.83;;;5.70;;
63346;SDS011;49472;49.880;8.650;2023-04-12T14:40:58;10.73;;;4.37;;
63346;SDS011;49472;49.880;8.650;2023-04-12T14:43:23;4.67;;;4.27;;
63346;SDS011;49472;49.880;8.650;2023-04-12T14:45:49;10.13;;;4.13;;
63346;SDS011;49472;49.880;8.650;2023-04-12T14:48:14;4.77;;;3.40;;
63346;SDS011;49472;49.880;8.650;2023-04-12T14:50:40;4.53;;;4.10;;
63346;SDS011;49472;49.880;8.650;2023-04-12T14:53:05;5.93;;;3.60;;
63346;SDS011;49472;49.880;8.650;2023-04-12T14:55:33;4.90;;;4.27;;
63346;SDS011;49472;49.880;8.650;2023-04-12T14:57:58;10.83;;;5.37;;
63346;SDS011;49472;49.880;8.650;2023-04-12T15:00:24;19.20;;;5.73;;
63346;SDS011;49472;49.880;8.650;2023-04-12T15:02:49;6.03;;;4.90;;
63346;SDS011;49472;49.880;8.650;2023-04-12T15:05:14;5.30;;;4.80;;
63346;SDS011;49472;49.880;8.650;2023-04-12T15:07:40;7.40;;;4.30;;